Time;durP1;ratioP1;P1;durP2;ratioP2;P2;SDS_P1;SDS_P2;PMS_P1;PMS_P2;Temp;Humidity;BMP_temperature;BMP_pressure;BME280_temperature;BME280_humidity;BME280_pressure;Samples;Min_cycle;Max_cycle;Signal;HPM_P1;HPM_P2
2023/02/02 00:00:10;;;;;;;;;;;;;;;4.89;48.42;94690.97;4146599;28;20205;-61
2023/02/02 00:02:11;;;;;;;;;;;;;;;4.91;48.11;94699.47;4148065;28;19983;-60
2023/02/02 00:04:16;;;;;;;;;;;;;;;4.78;48.71;94691.84;4148398;28;19921;-61
2023/02/02 00:06:21;;;;;;;;;;;;;;;4.67;49.91;94691.91;4147818;28;19921;-61
2023/02/02 00:08:23;;;;;;;;;;;;;;;4.55;50.03;94692.88;4148428;28;20364;-62
2023/02/02 00:10:24;;;;;;;;;;;;;;;4.51;50.39;94684.50;4148247;28;19921;-62
2023/02/02 00:12:26;;;;;;;;;;;;;;;4.62;50.12;94687.03;4146532;28;19978;-61
2023/02/02 00:14:28;;;;;;;;;;;;;;;4.67;49.76;94681.50;4147672;28;19921;-60
2023/02/02 00:16:29;;;;;;;;;;;;;;;4.77;49.43;94681.56;4143695;28;20300;-60
2023/02/02 00:18:31;;;;;;;;;;;;;;;4.75;49.37;94686.88;4139622;28;19941;-60
2023/02/02 00:20:35;;;;;;;;;;;;;;;4.75;48.55;94684.28;4148569;28;19926;-62
2023/02/02 00:22:37;;;;;;;;;;;;;;;4.76;49.09;94685.94;4147905;28;19922;-61
2023/02/02 00:24:38;;;;;;;;;;;;;;;4.82;48.53;94682.00;4148268;28;19971;-60
2023/02/02 00:26:40;;;;;;;;;;;;;;;4.84;48.34;94690.50;4147884;28;20280;-61
2023/02/02 00:28:42;;;;;;;;;;;;;;;4.56;49.33;94694.50;4145023;28;19928;-62
2023/02/02 00:30:44;;;;;;;;;;;;;;;4.47;49.77;94686.53;4147572;28;19921;-60
2023/02/02 00:32:47;;;;;;;;;;;;;;;4.48;49.06;94701.13;4147740;28;20025;-60
2023/02/02 00:34:48;;;;;;;;;;;;;;;4.54;49.18;94688.59;4135814;28;19971;-61
2023/02/02 00:36:50;;;;;;;;;;;;;;;4.60;49.27;94701.91;4147870;28;19925;-61
2023/02/02 00:38:52;;;;;;;;;;;;;;;4.61;49.01;94703.56;4147427;28;19964;-60
2023/02/02 00:40:53;;;;;;;;;;;;;;;4.69;49.68;94702.97;4147900;28;19921;-61
2023/02/02 00:42:55;;;;;;;;;;;;;;;4.74;49.40;94706.00;4139357;28;19961;-60
2023/02/02 00:45:15;;;;;;;;;;;;;;;4.75;49.52;94704.22;4138901;28;19979;-60
2023/02/02 00:47:16;;;;;;;;;;;;;;;4.71;50.63;94709.69;4132356;28;19976;-60
2023/02/02 00:49:18;;;;;;;;;;;;;;;4.73;50.69;94704.34;4147917;28;19921;-59
2023/02/02 00:51:19;;;;;;;;;;;;;;;4.78;50.29;94704.81;4147717;28;19922;-59
2023/02/02 00:53:21;;;;;;;;;;;;;;;4.81;50.16;94707.16;4136947;28;19925;-60
2023/02/02 00:55:22;;;;;;;;;;;;;;;4.84;50.31;94701.72;4145709;28;19925;-61
2023/02/02 00:57:24;;;;;;;;;;;;;;;4.88;50.56;94710.91;4142519;28;19922;-61
2023/02/02 00:59:26;;;;;;;;;;;;;;;4.71;51.73;94704.50;4137877;28;19941;-58
2023/02/02 01:01:27;;;;;;;;;;;;;;;4.71;51.72;94690.66;4139436;28;20364;-60
2023/02/02 01:03:29;;;;;;;;;;;;;;;4.45;53.02;94692.75;4144520;28;19925;-60
2023/02/02 01:05:30;;;;;;;;;;;;;;;4.42;53.38;94691.25;4147658;28;19925;-58
2023/02/02 01:07:32;;;;;;;;;;;;;;;4.44;53.65;94684.16;4135144;28;19981;-59
2023/02/02 01:09:33;;;;;;;;;;;;;;;4.46;53.99;94684.88;4147551;28;19921;-61
2023/02/02 01:11:35;;;;;;;;;;;;;;;4.55;53.48;94685.91;4147425;28;19929;-61
2023/02/02 01:13:37;;;;;;;;;;;;;;;4.59;52.53;94673.50;4127046;28;19965;-59
2023/02/02 01:15:38;;;;;;;;;;;;;;;4.66;52.48;94674.66;4144684;28;19921;-61
2023/02/02 01:17:40;;;;;;;;;;;;;;;4.60;52.67;94665.59;4131128;28;19932;-60
2023/02/02 01:19:42;;;;;;;;;;;;;;;4.52;52.22;94662.81;4146846;28;20007;-64
2023/02/02 01:21:43;;;;;;;;;;;;;;;4.56;52.36;94658.19;4135419;28;20555;-60
2023/02/02 01:23:44;;;;;;;;;;;;;;;4.56;51.18;94664.22;4145302;28;19921;-61
2023/02/02 01:25:51;;;;;;;;;;;;;;;4.56;51.29;94664.22;4146395;28;19921;-60
2023/02/02 01:27:53;;;;;;;;;;;;;;;4.45;51.64;94670.25;4146531;28;19968;-60
2023/02/02 01:29:54;;;;;;;;;;;;;;;4.44;51.59;94670.38;4146063;28;20275;-60
2023/02/02 01:31:56;;;;;;;;;;;;;;;4.47;50.88;94659.75;4143414;28;19921;-61
2023/02/02 01:33:57;;;;;;;;;;;;;;;4.46;51.01;94661.53;4147033;28;20392;-61
2023/02/02 01:36:01;;;;;;;;;;;;;;;4.37;51.98;94658.84;4147260;28;19921;-61
2023/02/02 01:38:03;;;;;;;;;;;;;;;4.39;52.05;94664.72;4146806;28;19968;-61
2023/02/02 01:40:04;;;;;;;;;;;;;;;4.41;51.94;94665.41;4146733;28;19925;-60
2023/02/02 01:42:13;;;;;;;;;;;;;;;4.43;51.86;94660.94;4146631;28;20012;-57
2023/02/02 01:44:33;;;;;;;;;;;;;;;4.47;52.39;94654.56;4146369;28;20292;-62
2023/02/02 01:46:35;;;;;;;;;;;;;;;4.45;52.59;94659.03;4146296;28;19999;-61
2023/02/02 01:48:37;;;;;;;;;;;;;;;4.40;53.30;94656.81;4146422;28;19921;-63
2023/02/02 01:50:38;;;;;;;;;;;;;;;4.39;52.71;94651.75;4129543;28;19929;-60
2023/02/02 01:52:40;;;;;;;;;;;;;;;4.40;53.26;94651.63;4161422;28;19959;-60
2023/02/02 01:54:43;;;;;;;;;;;;;;;4.23;53.51;94650.38;4146919;28;19921;-60
2023/02/02 01:56:46;;;;;;;;;;;;;;;4.14;53.29;94647.69;4146161;28;20457;-60
2023/02/02 01:58:47;;;;;;;;;;;;;;;4.18;54.19;94642.16;4144701;28;20270;-61
2023/02/02 02:00:49;;;;;;;;;;;;;;;4.18;54.29;94644.75;4128394;28;19965;-60
2023/02/02 02:02:51;;;;;;;;;;;;;;;4.12;53.98;94634.84;4160996;28;20024;-60
2023/02/02 02:04:53;;;;;;;;;;;;;;;4.11;53.62;94638.41;4129412;28;19921;-60
2023/02/02 02:06:54;;;;;;;;;;;;;;;4.07;54.28;94637.00;4146290;28;19969;-60
2023/02/02 02:08:59;;;;;;;;;;;;;;;4.05;54.88;94638.88;4144358;28;19991;-61
2023/02/02 02:11:01;;;;;;;;;;;;;;;4.01;55.23;94645.25;4138978;28;19932;-60
2023/02/02 02:13:03;;;;;;;;;;;;;;;4.09;54.87;94646.28;4142569;28;19921;-60
2023/02/02 02:17:28;;;;;;;;;;;;;;;4.12;54.65;94641.81;4133586;28;19922;-60
2023/02/02 02:27:14;;;;;;;;;;;;;;;4.02;55.80;94644.28;4133978;28;20100;-61
2023/02/02 02:29:34;;;;;;;;;;;;;;;3.96;56.33;94645.63;4136497;28;19921;-60
2023/02/02 02:31:42;;;;;;;;;;;;;;;3.95;56.36;94651.72;4132148;28;19922;-61
2023/02/02 02:33:49;;;;;;;;;;;;;;;3.98;55.95;94640.28;4146278;28;19921;-61
2023/02/02 02:35:54;;;;;;;;;;;;;;;3.91;55.73;94645.13;4146443;28;19925;-61
2023/02/02 02:37:56;;;;;;;;;;;;;;;3.96;56.10;94639.59;4112939;28;19933;-61
2023/02/02 02:40:16;;;;;;;;;;;;;;;3.99;55.54;94644.53;4146321;28;19965;-61
2023/02/02 02:42:21;;;;;;;;;;;;;;;4.02;55.39;94645.13;4129115;28;20364;-60
2023/02/02 02:44:23;;;;;;;;;;;;;;;3.99;54.67;94647.94;4138165;28;20396;-61
2023/02/02 02:46:24;;;;;;;;;;;;;;;3.99;55.14;94649.72;4145875;28;19928;-60
2023/02/02 02:48:27;;;;;;;;;;;;;;;4.05;55.45;94644.88;4128496;28;20022;-60
2023/02/02 02:50:29;;;;;;;;;;;;;;;4.02;55.28;94637.34;4136516;28;20302;-60
2023/02/02 02:52:30;;;;;;;;;;;;;;;4.07;54.54;94639.59;4146441;28;19964;-60
2023/02/02 02:54:33;;;;;;;;;;;;;;;4.05;54.74;94634.50;4145121;28;19921;-61
2023/02/02 02:56:39;;;;;;;;;;;;;;;3.98;54.83;94646.31;4133457;28;19988;-61
2023/02/02 02:58:40;;;;;;;;;;;;;;;3.97;54.64;94641.25;4143549;28;19922;-60
2023/02/02 03:01:11;;;;;;;;;;;;;;;4.04;54.02;94640.66;4145564;28;19964;-61
2023/02/02 03:03:15;;;;;;;;;;;;;;;3.99;54.91;94631.59;4140644;28;19926;-59
2023/02/02 03:05:25;;;;;;;;;;;;;;;4.01;54.13;94640.06;4144598;28;20008;-59
2023/02/02 03:07:47;;;;;;;;;;;;;;;4.03;54.43;94636.41;4128798;28;20361;-59
2023/02/02 03:09:49;;;;;;;;;;;;;;;4.05;53.63;94634.50;4148462;28;19921;-61
2023/02/02 03:11:50;;;;;;;;;;;;;;;4.09;54.53;94635.91;4147075;28;19981;-62
2023/02/02 03:13:52;;;;;;;;;;;;;;;4.07;54.20;94644.78;4148939;28;20024;-59
2023/02/02 03:15:53;;;;;;;;;;;;;;;3.99;54.52;94636.75;4138098;28;19921;-60
2023/02/02 03:17:55;;;;;;;;;;;;;;;3.89;54.50;94640.09;4132692;28;19956;-60
2023/02/02 03:19:56;;;;;;;;;;;;;;;3.55;57.04;94636.69;4136559;28;19925;-61
2023/02/02 03:21:58;;;;;;;;;;;;;;;3.39;57.16;94636.22;4148945;28;20008;-60
2023/02/02 03:23:59;;;;;;;;;;;;;;;3.25;57.59;94627.72;4148856;28;20009;-61
2023/02/02 03:26:01;;;;;;;;;;;;;;;3.12;58.10;94632.19;4130721;28;19926;-60
2023/02/02 03:28:03;;;;;;;;;;;;;;;3.16;58.13;94635.34;4143655;28;19960;-61
2023/02/02 03:30:05;;;;;;;;;;;;;;;3.27;57.32;94628.44;4132962;28;19921;-60
2023/02/02 03:32:07;;;;;;;;;;;;;;;3.36;57.39;94623.50;4142259;28;20326;-60
2023/02/02 03:34:08;;;;;;;;;;;;;;;3.40;57.01;94632.66;4147865;28;19922;-62
2023/02/02 03:36:10;;;;;;;;;;;;;;;3.43;56.96;94624.69;4148608;28;20070;-63
2023/02/02 03:38:11;;;;;;;;;;;;;;;3.45;56.84;94625.38;4131347;28;19926;-62
2023/02/02 03:40:13;;;;;;;;;;;;;;;3.48;56.13;94630.31;4148697;28;19925;-61
2023/02/02 03:42:14;;;;;;;;;;;;;;;3.48;56.36;94632.91;4148057;28;20367;-61
2023/02/02 03:44:16;;;;;;;;;;;;;;;3.43;56.56;94632.44;4148351;28;19921;-63
2023/02/02 03:46:17;;;;;;;;;;;;;;;3.53;56.33;94620.44;4148121;28;19956;-60
2023/02/02 03:48:19;;;;;;;;;;;;;;;3.63;55.88;94636.91;4147686;28;19965;-61
2023/02/02 03:50:20;;;;;;;;;;;;;;;3.69;55.50;94620.88;4147494;28;19921;-60
2023/02/02 03:52:22;;;;;;;;;;;;;;;3.63;56.07;94628.31;4148426;28;20002;-62
2023/02/02 03:54:23;;;;;;;;;;;;;;;3.74;55.30;94619.72;4148780;28;19925;-58
2023/02/02 03:56:25;;;;;;;;;;;;;;;3.80;55.16;94634.78;4148508;28;20165;-60
2023/02/02 03:58:26;;;;;;;;;;;;;;;3.86;54.23;94634.31;4147580;28;20048;-63
2023/02/02 04:00:28;;;;;;;;;;;;;;;3.64;55.04;94633.38;4145950;28;19932;-61
2023/02/02 04:02:29;;;;;;;;;;;;;;;3.61;56.02;94636.19;4147912;28;19972;-58
2023/02/02 04:04:31;;;;;;;;;;;;;;;3.59;55.60;94632.09;4148745;28;20008;-59
2023/02/02 04:06:33;;;;;;;;;;;;;;;3.72;55.45;94639.72;4133343;28;19921;-59
2023/02/02 04:08:34;;;;;;;;;;;;;;;3.67;55.21;94645.28;4131032;28;19972;-60
2023/02/02 04:10:38;;;;;;;;;;;;;;;3.58;55.72;94646.81;4131228;28;20012;-62
2023/02/02 04:12:39;;;;;;;;;;;;;;;3.60;56.18;94649.28;4138103;28;19921;-60
2023/02/02 04:14:41;;;;;;;;;;;;;;;3.44;57.14;94644.44;4132175;28;19968;-60
2023/02/02 04:16:42;;;;;;;;;;;;;;;3.36;57.62;94652.00;4134999;28;19975;-62
2023/02/02 04:18:44;;;;;;;;;;;;;;;3.28;57.62;94650.78;4147783;28;19921;-59
2023/02/02 04:20:45;;;;;;;;;;;;;;;3.17;57.97;94658.53;4138122;28;19921;-59
2023/02/02 04:22:47;;;;;;;;;;;;;;;2.97;59.39;94659.19;4140735;28;19921;-61
2023/02/02 04:24:48;;;;;;;;;;;;;;;2.66;60.27;94675.22;4148114;28;19940;-61
2023/02/02 04:26:50;;;;;;;;;;;;;;;2.47;61.12;94659.38;4144169;28;20276;-59
2023/02/02 04:28:52;;;;;;;;;;;;;;;2.61;60.00;94663.56;4137833;28;19988;-63
2023/02/02 04:30:54;;;;;;;;;;;;;;;2.64;59.40;94665.91;4147696;28;19921;-61
2023/02/02 04:32:55;;;;;;;;;;;;;;;2.85;58.04;94656.59;4132475;28;19921;-62
2023/02/02 04:34:57;;;;;;;;;;;;;;;3.10;57.15;94643.56;4147698;28;20332;-62
2023/02/02 04:36:58;;;;;;;;;;;;;;;3.27;56.39;94636.22;4147590;28;19975;-61
2023/02/02 04:39:00;;;;;;;;;;;;;;;3.45;55.44;94633.16;4143142;28;19922;-62
2023/02/02 04:41:05;;;;;;;;;;;;;;;3.55;54.59;94641.88;4140348;28;19965;-61
2023/02/02 04:43:07;;;;;;;;;;;;;;;3.65;54.26;94647.97;4147588;28;19929;-62
2023/02/02 04:45:08;;;;;;;;;;;;;;;3.77;53.56;94648.00;4147532;28;19921;-62
2023/02/02 04:47:10;;;;;;;;;;;;;;;3.85;53.52;94650.78;4148461;28;20279;-59
2023/02/02 04:49:11;;;;;;;;;;;;;;;3.89;53.39;94650.44;4149196;28;19929;-61
2023/02/02 04:51:14;;;;;;;;;;;;;;;3.89;52.62;94654.78;4149019;28;19989;-62
2023/02/02 04:53:15;;;;;;;;;;;;;;;3.91;53.11;94658.09;4148529;28;19929;-60
2023/02/02 04:55:17;;;;;;;;;;;;;;;3.92;53.03;94651.16;4148898;28;19922;-62
2023/02/02 04:57:18;;;;;;;;;;;;;;;3.87;52.67;94654.09;4147245;28;19968;-61
2023/02/02 04:59:20;;;;;;;;;;;;;;;3.90;53.51;94656.47;4147784;28;19929;-61
2023/02/02 05:01:21;;;;;;;;;;;;;;;3.90;53.14;94662.47;4147378;28;19925;-63
2023/02/02 05:03:23;;;;;;;;;;;;;;;3.92;53.15;94658.94;4144892;28;19930;-62
2023/02/02 05:05:24;;;;;;;;;;;;;;;3.92;53.07;94664.13;4139043;28;20271;-62
2023/02/02 05:07:26;;;;;;;;;;;;;;;3.95;52.46;94659.50;4148101;28;20360;-61
2023/02/02 05:09:28;;;;;;;;;;;;;;;3.97;52.86;94656.78;4148013;28;19992;-59
2023/02/02 05:11:29;;;;;;;;;;;;;;;3.89;52.75;94665.16;4149004;28;19976;-60
2023/02/02 05:13:31;;;;;;;;;;;;;;;3.89;52.88;94655.63;4138478;28;19952;-63
2023/02/02 05:15:32;;;;;;;;;;;;;;;3.94;52.14;94657.88;4143983;28;19921;-63
2023/02/02 05:17:34;;;;;;;;;;;;;;;3.90;52.74;94666.81;4147228;28;19925;-63
2023/02/02 05:19:35;;;;;;;;;;;;;;;3.88;52.52;94653.16;4144917;28;19921;-63
2023/02/02 05:21:37;;;;;;;;;;;;;;;3.92;51.78;94658.94;4141461;28;19986;-63
2023/02/02 05:23:38;;;;;;;;;;;;;;;3.93;52.53;94650.19;4147317;28;20330;-63
2023/02/02 05:25:40;;;;;;;;;;;;;;;3.96;52.35;94640.44;4147915;28;19921;-62
2023/02/02 05:27:43;;;;;;;;;;;;;;;3.91;52.01;94639.94;4146405;28;20438;-61
2023/02/02 05:29:45;;;;;;;;;;;;;;;3.89;51.59;94639.25;4133550;28;19926;-63
2023/02/02 05:31:47;;;;;;;;;;;;;;;3.89;51.26;94654.78;4132399;28;19988;-63
2023/02/02 05:33:48;;;;;;;;;;;;;;;3.85;51.38;94645.59;4140176;28;19922;-61
2023/02/02 05:35:50;;;;;;;;;;;;;;;3.73;51.92;94647.41;4141649;28;19932;-62
2023/02/02 05:37:52;;;;;;;;;;;;;;;3.66;52.35;94651.41;4138857;28;19932;-61
2023/02/02 05:39:53;;;;;;;;;;;;;;;3.66;52.88;94656.59;4143335;28;20527;-62
2023/02/02 05:41:55;;;;;;;;;;;;;;;3.72;51.72;94660.47;4130647;28;19976;-62
2023/02/02 05:43:59;;;;;;;;;;;;;;;3.79;51.80;94659.06;4136628;28;20024;-63
2023/02/02 05:46:01;;;;;;;;;;;;;;;3.83;51.39;94665.63;4145610;28;19967;-62
2023/02/02 05:48:03;;;;;;;;;;;;;;;3.87;50.72;94667.03;4133348;28;19954;-62
2023/02/02 05:50:05;;;;;;;;;;;;;;;3.89;51.04;94658.22;4130796;28;19921;-63
2023/02/02 05:52:07;;;;;;;;;;;;;;;3.96;50.69;94661.16;4131473;28;19922;-62
2023/02/02 05:54:08;;;;;;;;;;;;;;;4.02;50.64;94655.50;4141269;28;19926;-60
2023/02/02 05:56:10;;;;;;;;;;;;;;;4.05;50.82;94665.63;4146273;28;19971;-62
2023/02/02 05:58:11;;;;;;;;;;;;;;;4.08;50.12;94657.59;4130721;28;20368;-62
2023/02/02 06:00:13;;;;;;;;;;;;;;;4.02;50.93;94683.16;4128503;28;20012;-63
2023/02/02 06:02:15;;;;;;;;;;;;;;;4.05;50.19;94655.25;4130441;28;19933;-60
2023/02/02 06:04:16;;;;;;;;;;;;;;;4.09;49.79;94664.44;4144605;28;19921;-61
2023/02/02 06:06:18;;;;;;;;;;;;;;;3.87;50.92;94667.88;4142156;28;20419;-60
2023/02/02 06:08:19;;;;;;;;;;;;;;;3.88;50.73;94658.34;4131080;28;19996;-62
2023/02/02 06:10:21;;;;;;;;;;;;;;;3.89;50.44;94672.94;4134483;28;20546;-62
2023/02/02 06:12:22;;;;;;;;;;;;;;;3.87;50.69;94662.72;4144432;28;19972;-62
2023/02/02 06:14:24;;;;;;;;;;;;;;;4.00;50.75;94659.97;4134677;28;19964;-61
2023/02/02 06:16:25;;;;;;;;;;;;;;;4.08;49.72;94677.50;4138326;28;19957;-62
2023/02/02 06:18:27;;;;;;;;;;;;;;;4.09;49.96;94682.59;4130639;28;20372;-62
2023/02/02 06:20:28;;;;;;;;;;;;;;;4.20;50.78;94673.97;4131254;28;19968;-61
2023/02/02 06:22:31;;;;;;;;;;;;;;;4.29;49.55;94672.41;4137871;28;20435;-62
2023/02/02 06:24:32;;;;;;;;;;;;;;;4.36;49.41;94683.13;4147011;28;20284;-64
2023/02/02 06:26:34;;;;;;;;;;;;;;;4.42;49.88;94693.84;4146428;28;19929;-65
2023/02/02 06:28:35;;;;;;;;;;;;;;;4.33;49.38;94699.75;4145700;28;20007;-63
2023/02/02 06:30:37;;;;;;;;;;;;;;;4.37;49.86;94692.56;4145999;28;19925;-64
2023/02/02 06:32:39;;;;;;;;;;;;;;;4.36;49.76;94691.72;4146146;28;19921;-63
2023/02/02 06:34:40;;;;;;;;;;;;;;;4.40;49.63;94700.91;4145951;28;20356;-63
2023/02/02 06:36:42;;;;;;;;;;;;;;;4.48;49.00;94695.13;4146060;28;19929;-61
2023/02/02 06:38:46;;;;;;;;;;;;;;;4.46;48.76;94708.22;4145978;28;19921;-63
2023/02/02 06:40:48;;;;;;;;;;;;;;;4.47;48.63;94706.44;4146407;28;19953;-63
2023/02/02 06:42:56;;;;;;;;;;;;;;;4.48;49.39;94708.91;4145108;28;19976;-61
2023/02/02 06:44:58;;;;;;;;;;;;;;;4.46;48.86;94710.81;4148285;28;20050;-63
2023/02/02 06:46:59;;;;;;;;;;;;;;;4.45;49.02;94713.50;4148335;28;19929;-62
2023/02/02 06:49:01;;;;;;;;;;;;;;;4.44;49.40;94702.31;4148331;28;19921;-62
2023/02/02 06:51:04;;;;;;;;;;;;;;;4.42;48.82;94701.63;4150126;28;20244;-63
2023/02/02 06:53:05;;;;;;;;;;;;;;;4.55;49.59;94698.88;4149273;28;19921;-61
2023/02/02 06:55:07;;;;;;;;;;;;;;;4.54;48.57;94706.75;4149271;28;20024;-63
2023/02/02 06:57:09;;;;;;;;;;;;;;;4.57;48.34;94709.94;4148739;28;19976;-65
2023/02/02 06:59:10;;;;;;;;;;;;;;;4.56;48.97;94721.28;4148316;28;19925;-60
2023/02/02 07:01:12;;;;;;;;;;;;;;;4.53;48.92;94710.31;4148373;28;19953;-62
2023/02/02 07:03:14;;;;;;;;;;;;;;;4.55;49.03;94721.41;4148490;28;20498;-61
2023/02/02 07:05:18;;;;;;;;;;;;;;;4.65;49.32;94714.53;4147711;28;20363;-63
2023/02/02 07:07:19;;;;;;;;;;;;;;;4.69;48.68;94721.13;4143399;28;19967;-62
2023/02/02 07:09:21;;;;;;;;;;;;;;;4.69;48.86;94711.56;4147339;28;19957;-63
2023/02/02 07:11:22;;;;;;;;;;;;;;;4.74;49.04;94712.97;4149109;28;19972;-62
2023/02/02 07:13:24;;;;;;;;;;;;;;;4.84;49.19;94704.34;4148259;28;20024;-61
2023/02/02 07:15:26;;;;;;;;;;;;;;;4.96;48.77;94709.47;4148564;28;19925;-64
2023/02/02 07:17:27;;;;;;;;;;;;;;;4.94;48.69;94717.38;4148830;28;19925;-65
2023/02/02 07:19:47;;;;;;;;;;;;;;;4.94;48.12;94709.59;4149250;28;19921;-63
2023/02/02 07:21:49;;;;;;;;;;;;;;;4.96;48.73;94717.25;4138467;28;19967;-64
2023/02/02 07:23:50;;;;;;;;;;;;;;;4.95;48.46;94720.78;4144749;28;19960;-63
2023/02/02 07:25:59;;;;;;;;;;;;;;;4.92;48.54;94720.09;4141280;28;19975;-64
2023/02/02 07:28:00;;;;;;;;;;;;;;;4.90;48.33;94715.97;4148750;28;20295;-64
2023/02/02 07:30:02;;;;;;;;;;;;;;;4.88;48.05;94713.53;4135631;28;19956;-63
2023/02/02 07:32:04;;;;;;;;;;;;;;;4.90;48.79;94708.19;4146643;28;19957;-66
2023/02/02 07:34:06;;;;;;;;;;;;;;;4.88;48.49;94723.06;4149244;28;19932;-63
2023/02/02 07:36:07;;;;;;;;;;;;;;;4.99;48.44;94722.19;4143822;28;19928;-65
2023/02/02 07:38:09;;;;;;;;;;;;;;;5.01;48.58;94726.34;4131782;28;19921;-64
2023/02/02 07:40:10;;;;;;;;;;;;;;;5.18;48.33;94721.53;4148679;28;19922;-64
2023/02/02 07:42:12;;;;;;;;;;;;;;;5.24;48.45;94715.81;4147887;28;19947;-62
2023/02/02 07:44:14;;;;;;;;;;;;;;;5.27;47.95;94713.81;4147224;28;19959;-64
2023/02/02 07:46:16;;;;;;;;;;;;;;;5.35;47.71;94710.56;4148940;28;20402;-63
2023/02/02 07:48:17;;;;;;;;;;;;;;;5.37;47.09;94706.06;4144603;28;20280;-63
2023/02/02 07:50:19;;;;;;;;;;;;;;;5.47;47.57;94695.75;4133066;28;19922;-64
2023/02/02 07:52:20;;;;;;;;;;;;;;;5.53;47.20;94703.03;4141579;28;19921;-63
2023/02/02 07:54:22;;;;;;;;;;;;;;;5.60;47.24;94687.75;4131412;28;20005;-62
2023/02/02 07:56:25;;;;;;;;;;;;;;;5.71;47.24;94677.25;4134521;28;20368;-61
2023/02/02 07:58:26;;;;;;;;;;;;;;;5.80;47.10;94683.47;4141892;28;20033;-63
2023/02/02 08:00:28;;;;;;;;;;;;;;;5.82;46.70;94686.75;4142298;28;19971;-63
2023/02/02 08:02:30;;;;;;;;;;;;;;;5.84;46.42;94687.44;4147499;28;19921;-63
2023/02/02 08:04:33;;;;;;;;;;;;;;;6.02;46.26;94687.66;4144771;28;19921;-63
2023/02/02 08:06:35;;;;;;;;;;;;;;;5.95;46.06;94695.19;4139557;28;19980;-62
2023/02/02 08:08:37;;;;;;;;;;;;;;;6.18;45.82;94684.59;4148656;28;20016;-63
2023/02/02 08:10:38;;;;;;;;;;;;;;;6.21;45.91;94686.91;4140464;28;19921;-63
2023/02/02 08:12:40;;;;;;;;;;;;;;;6.35;45.44;94682.16;4143580;28;19957;-61
2023/02/02 08:14:41;;;;;;;;;;;;;;;6.48;45.33;94691.50;4144746;28;20357;-62
2023/02/02 08:16:42;;;;;;;;;;;;;;;6.53;45.69;94679.72;4148029;28;20013;-63
2023/02/02 08:18:44;;;;;;;;;;;;;;;6.47;46.11;94675.06;4138182;28;19944;-62
2023/02/02 08:20:45;;;;;;;;;;;;;;;6.51;46.32;94678.22;4141234;28;20009;-62
2023/02/02 08:22:47;;;;;;;;;;;;;;;6.47;46.23;94671.63;4148229;28;19921;-62
2023/02/02 08:24:48;;;;;;;;;;;;;;;6.38;46.19;94668.06;4148333;28;19972;-62
2023/02/02 08:26:50;;;;;;;;;;;;;;;6.22;46.14;94675.56;4144455;28;19972;-62
2023/02/02 08:28:53;;;;;;;;;;;;;;;6.26;46.71;94669.97;4138264;28;19925;-62
2023/02/02 08:30:54;;;;;;;;;;;;;;;6.25;46.85;94668.31;4147919;28;20311;-63
2023/02/02 08:32:56;;;;;;;;;;;;;;;6.32;46.81;94673.78;4134590;28;19925;-64
2023/02/02 08:34:57;;;;;;;;;;;;;;;6.49;46.12;94673.13;4147563;28;19962;-63
2023/02/02 08:36:59;;;;;;;;;;;;;;;6.53;46.48;94664.09;4147705;28;19973;-62
2023/02/02 08:39:01;;;;;;;;;;;;;;;6.69;46.02;94665.34;4146642;28;20004;-64
2023/02/02 08:41:04;;;;;;;;;;;;;;;6.80;46.01;94662.63;4147671;28;20012;-63
2023/02/02 08:43:06;;;;;;;;;;;;;;;6.67;46.54;94660.31;4147038;28;19925;-63
2023/02/02 08:45:11;;;;;;;;;;;;;;;6.70;46.78;94672.22;4146106;28;19928;-61
2023/02/02 08:47:32;;;;;;;;;;;;;;;6.64;46.69;94659.75;4147250;28;19925;-62
2023/02/02 08:49:34;;;;;;;;;;;;;;;6.63;46.91;94650.31;4148092;28;19961;-62
2023/02/02 08:51:36;;;;;;;;;;;;;;;6.61;47.22;94641.81;4147769;28;19921;-63
2023/02/02 08:53:37;;;;;;;;;;;;;;;6.68;47.26;94640.28;4147888;28;19929;-64
2023/02/02 08:55:39;;;;;;;;;;;;;;;6.51;47.63;94645.19;4147661;28;19928;-63
2023/02/02 08:57:40;;;;;;;;;;;;;;;6.44;47.90;94643.28;4147600;28;19976;-63
2023/02/02 08:59:44;;;;;;;;;;;;;;;6.53;48.04;94647.69;4147520;28;19925;-64
2023/02/02 09:01:46;;;;;;;;;;;;;;;6.79;47.38;94642.75;4147149;28;20330;-62
2023/02/02 09:03:48;;;;;;;;;;;;;;;6.87;47.29;94650.69;4147676;28;19975;-60
2023/02/02 09:05:49;;;;;;;;;;;;;;;6.94;47.87;94640.56;4147666;28;19921;-62
2023/02/02 09:07:50;;;;;;;;;;;;;;;7.05;47.15;94636.97;4129330;28;20003;-61
2023/02/02 09:09:54;;;;;;;;;;;;;;;7.26;47.20;94642.84;4147784;28;19960;-63
2023/02/02 09:11:56;;;;;;;;;;;;;;;7.29;46.63;94634.75;4146824;28;19947;-62
2023/02/02 09:13:58;;;;;;;;;;;;;;;7.43;46.83;94630.88;4140276;28;19922;-63
2023/02/02 09:16:00;;;;;;;;;;;;;;;7.38;46.23;94651.34;4141911;28;19928;-63
2023/02/02 09:18:01;;;;;;;;;;;;;;;7.49;45.98;94634.72;4133768;28;19928;-62
2023/02/02 09:20:03;;;;;;;;;;;;;;;7.69;46.10;94618.03;4131770;28;19973;-62
2023/02/02 09:22:05;;;;;;;;;;;;;;;7.92;44.72;94634.13;4134868;28;19925;-62
2023/02/02 09:24:07;;;;;;;;;;;;;;;8.07;45.11;94624.03;4130227;28;19972;-62
2023/02/02 09:26:09;;;;;;;;;;;;;;;8.33;45.34;94628.56;4147566;28;19921;-62
2023/02/02 09:28:10;;;;;;;;;;;;;;;8.44;44.59;94635.41;4146869;28;20384;-60
2023/02/02 09:30:12;;;;;;;;;;;;;;;8.60;43.59;94633.78;4146902;28;20019;-61
2023/02/02 09:32:13;;;;;;;;;;;;;;;8.68;44.64;94633.00;4146822;28;19941;-62
2023/02/02 09:34:15;;;;;;;;;;;;;;;8.81;44.15;94620.41;4147415;28;19921;-63
2023/02/02 09:36:19;;;;;;;;;;;;;;;8.56;44.70;94624.59;4147408;28;19952;-63
2023/02/02 09:38:20;;;;;;;;;;;;;;;8.57;45.17;94628.03;4147562;28;19922;-62
2023/02/02 09:40:26;;;;;;;;;;;;;;;8.48;43.56;94616.69;4146738;28;20024;-64
2023/02/02 09:42:31;;;;;;;;;;;;;;;8.23;44.44;94631.22;4146798;28;19922;-64
2023/02/02 09:44:36;;;;;;;;;;;;;;;8.43;43.88;94608.44;4145847;28;19925;-62
2023/02/02 09:46:37;;;;;;;;;;;;;;;8.56;44.14;94608.09;4146459;28;20265;-62
2023/02/02 09:48:42;;;;;;;;;;;;;;;8.70;45.26;94597.13;4146427;28;19922;-62
2023/02/02 09:50:48;;;;;;;;;;;;;;;8.76;46.08;94596.53;4137078;28;19996;-61
2023/02/02 09:53:16;;;;;;;;;;;;;;;8.91;45.21;94604.66;4129595;28;19922;-60
2023/02/02 09:55:25;;;;;;;;;;;;;;;9.04;45.14;94598.22;4138030;28;19944;-63
2023/02/02 09:57:37;;;;;;;;;;;;;;;9.07;44.81;94600.53;4146597;28;19992;-63
2023/02/02 09:59:39;;;;;;;;;;;;;;;9.32;44.39;94598.91;4130017;28;20005;-63
2023/02/02 10:01:43;;;;;;;;;;;;;;;9.50;43.90;94604.06;4130646;28;19937;-61
2023/02/02 10:03:58;;;;;;;;;;;;;;;9.49;43.79;94594.59;4140400;28;19921;-62
2023/02/02 10:06:14;;;;;;;;;;;;;;;9.69;43.13;94589.97;4134644;28;19928;-62
2023/02/02 10:08:20;;;;;;;;;;;;;;;8.83;41.84;94588.91;4140220;28;19987;-61
2023/02/02 10:10:37;;;;;;;;;;;;;;;8.69;42.60;94581.59;4135825;28;19926;-62
2023/02/02 10:12:47;;;;;;;;;;;;;;;8.65;42.41;94594.16;4144755;28;19991;-65
2023/02/02 10:15:00;;;;;;;;;;;;;;;8.36;42.76;94586.50;4128842;28;20392;-61
2023/02/02 10:17:08;;;;;;;;;;;;;;;8.64;43.51;94573.41;4146382;28;19956;-61
2023/02/02 10:19:10;;;;;;;;;;;;;;;8.85;42.72;94581.75;4129358;28;19960;-63
2023/02/02 10:21:12;;;;;;;;;;;;;;;8.99;41.98;94576.00;4145212;28;19964;-62
2023/02/02 10:23:14;;;;;;;;;;;;;;;9.14;41.34;94583.25;4146809;28;20292;-61
2023/02/02 10:25:16;;;;;;;;;;;;;;;9.49;41.67;94569.28;4133532;28;19921;-61
2023/02/02 10:27:21;;;;;;;;;;;;;;;9.56;41.10;94575.50;4144882;28;20356;-62
2023/02/02 10:29:23;;;;;;;;;;;;;;;9.56;40.97;94559.81;4144736;28;19959;-63
2023/02/02 10:31:28;;;;;;;;;;;;;;;9.46;40.24;94568.75;4145784;28;20444;-62
2023/02/02 10:33:39;;;;;;;;;;;;;;;9.39;41.54;94558.91;4133428;28;20025;-64
2023/02/02 10:35:40;;;;;;;;;;;;;;;9.32;40.83;94555.28;4140909;28;20021;-61
2023/02/02 10:38:02;;;;;;;;;;;;;;;9.35;41.26;94556.75;4139110;28;19922;-63
2023/02/02 10:40:10;;;;;;;;;;;;;;;9.24;40.99;94550.00;4143138;28;19925;-63
2023/02/02 10:42:12;;;;;;;;;;;;;;;9.24;41.07;94542.16;4134744;28;19925;-62
2023/02/02 10:44:21;;;;;;;;;;;;;;;9.24;40.89;94542.16;4138449;28;20368;-64
2023/02/02 10:46:22;;;;;;;;;;;;;;;9.11;41.42;94526.06;4128955;28;20411;-62
2023/02/02 10:48:31;;;;;;;;;;;;;;;8.80;41.54;94519.50;4133524;28;20016;-64
2023/02/02 10:50:33;;;;;;;;;;;;;;;8.79;41.70;94506.59;4139446;28;19922;-64
2023/02/02 10:52:35;;;;;;;;;;;;;;;9.04;41.53;94504.16;4129285;28;19926;-65
2023/02/02 10:54:49;;;;;;;;;;;;;;;9.22;41.40;94505.72;4127163;28;19973;-64
2023/02/02 10:56:58;;;;;;;;;;;;;;;9.05;41.62;94485.69;4137747;28;20008;-65
2023/02/02 10:59:00;;;;;;;;;;;;;;;9.19;41.22;94490.34;4129115;28;19991;-65